SAT420 LPLA-LPHR

Flight info

Callsign SAT420
Flight time 0h 37m
Altitude 16000
Route LM H153 NOTMA
Aircraft DH8D/M-SDE2E3FGRY/H

Departure

Time 2026-04-24 10:57
Airport Lajes Airport (LPLA)

Arrival

Time 2026-04-24 11:34
Airport Horta Airport (LPHR)
Time Latitude Longitude Altitude Speed Heading
2026-04-24 10:40 38.75553 -27.08686 202 ft 0 kts 274°
2026-04-24 10:53 38.75551 -27.08692 202 ft 0 kts 228°
2026-04-24 10:54 38.75551 -27.08693 202 ft 0 kts 228°
2026-04-24 10:54 38.75527 -27.08695 202 ft 5 kts 145°
2026-04-24 10:54 38.75507 -27.08634 202 ft 7 kts 117°
2026-04-24 10:54 38.75464 -27.08551 201 ft 15 kts 95°
2026-04-24 10:55 38.75466 -27.08527 201 ft 0 kts 71°
2026-04-24 10:55 38.75478 -27.08498 200 ft 11 kts 54°
2026-04-24 10:55 38.75524 -27.08429 197 ft 9 kts 47°
2026-04-24 10:55 38.75566 -27.08433 196 ft 0 kts 320°
2026-04-24 10:56 38.75738 -27.08617 197 ft 80 kts 320°
2026-04-24 10:56 38.76388 -27.09291 184 ft 154 kts 317°
2026-04-24 10:57 38.77301 -27.10112 581 ft 165 kts 324°
2026-04-24 10:57 38.78194 -27.10973 1249 ft 155 kts 297°
2026-04-24 10:57 38.78461 -27.12194 1817 ft 143 kts 265°
2026-04-24 10:57 38.78521 -27.13448 2313 ft 149 kts 265°
2026-04-24 10:58 38.78571 -27.14924 2509 ft 174 kts 265°
2026-04-24 10:58 38.78632 -27.16471 3045 ft 179 kts 266°
2026-04-24 10:58 38.78689 -27.18076 3647 ft 181 kts 266°
2026-04-24 10:58 38.78746 -27.19649 4283 ft 182 kts 266°
2026-04-24 10:59 38.78804 -27.21269 4947 ft 182 kts 266°
2026-04-24 10:59 38.78860 -27.22883 5589 ft 184 kts 265°
2026-04-24 10:59 38.78915 -27.24509 6257 ft 183 kts 265°
2026-04-24 10:59 38.78970 -27.26139 6899 ft 184 kts 266°
2026-04-24 11:00 38.79024 -27.27748 7548 ft 184 kts 266°
2026-04-24 11:00 38.79077 -27.29365 8169 ft 184 kts 267°
2026-04-24 11:00 38.79131 -27.31000 8785 ft 185 kts 267°
2026-04-24 11:00 38.79183 -27.32631 9405 ft 185 kts 268°
2026-04-24 11:01 38.79236 -27.34263 10030 ft 185 kts 268°
2026-04-24 11:01 38.79288 -27.35894 10569 ft 187 kts 268°
2026-04-24 11:01 38.79340 -27.37568 11091 ft 191 kts 269°
2026-04-24 11:01 38.79393 -27.39254 11612 ft 192 kts 269°
2026-04-24 11:02 38.79446 -27.40956 12135 ft 193 kts 270°
2026-04-24 11:02 38.79500 -27.42705 12604 ft 197 kts 270°
2026-04-24 11:02 38.79554 -27.44451 13088 ft 198 kts 271°
2026-04-24 11:02 38.79615 -27.46223 13499 ft 202 kts 271°
2026-04-24 11:03 38.79679 -27.48070 13734 ft 215 kts 271°
2026-04-24 11:03 38.79747 -27.49960 14347 ft 207 kts 271°
2026-04-24 11:03 38.79807 -27.51757 14876 ft 206 kts 270°
2026-04-24 11:03 38.79854 -27.53585 15241 ft 209 kts 270°
2026-04-24 11:04 38.79905 -27.55445 15653 ft 210 kts 270°
2026-04-24 11:04 38.79956 -27.57309 16027 ft 214 kts 270°
2026-04-24 11:04 38.80010 -27.59325 15965 ft 235 kts 270°
2026-04-24 11:04 38.80065 -27.61455 15930 ft 244 kts 270°
2026-04-24 11:05 38.80123 -27.63656 15920 ft 250 kts 270°
2026-04-24 11:05 38.80186 -27.65908 15917 ft 254 kts 270°
2026-04-24 11:05 38.80251 -27.68179 15913 ft 258 kts 270°
2026-04-24 11:05 38.80316 -27.70477 15915 ft 261 kts 270°
2026-04-24 11:06 38.80383 -27.72813 15917 ft 263 kts 270°
2026-04-24 11:06 38.80450 -27.75163 15917 ft 265 kts 270°
2026-04-24 11:06 38.80517 -27.77552 15915 ft 267 kts 270°
2026-04-24 11:06 38.80584 -27.79908 15912 ft 269 kts 270°
2026-04-24 11:07 38.80720 -27.84725 15905 ft 271 kts 270°
2026-04-24 11:07 38.80785 -27.87151 15898 ft 272 kts 270°
2026-04-24 11:07 38.80851 -27.89565 15890 ft 273 kts 270°
2026-04-24 11:08 38.80919 -27.91973 15903 ft 273 kts 270°
2026-04-24 11:08 38.80983 -27.94419 15800 ft 276 kts 270°
2026-04-24 11:08 38.81050 -27.96877 15799 ft 276 kts 270°
2026-04-24 11:08 38.81112 -27.99321 15799 ft 276 kts 270°
2026-04-24 11:09 38.81181 -28.01795 15796 ft 275 kts 270°
2026-04-24 11:09 38.81233 -28.04238 15788 ft 275 kts 268°
2026-04-24 11:09 38.80774 -28.06581 15766 ft 273 kts 243°
2026-04-24 11:09 38.79771 -28.08640 15783 ft 273 kts 238°
2026-04-24 11:10 38.78724 -28.10675 15785 ft 273 kts 238°
2026-04-24 11:10 38.77688 -28.12679 15786 ft 274 kts 238°
2026-04-24 11:10 38.76631 -28.14727 15644 ft 280 kts 238°
2026-04-24 11:10 38.75532 -28.16861 15252 ft 290 kts 238°
2026-04-24 11:11 38.74417 -28.19011 14655 ft 293 kts 238°
2026-04-24 11:11 38.73299 -28.21172 13979 ft 294 kts 239°
2026-04-24 11:11 38.72177 -28.23352 13325 ft 291 kts 238°
2026-04-24 11:11 38.71078 -28.25478 12679 ft 288 kts 238°
2026-04-24 11:12 38.69988 -28.27593 12036 ft 284 kts 238°
2026-04-24 11:12 38.68932 -28.29705 11399 ft 280 kts 238°
2026-04-24 11:12 38.67902 -28.31794 10753 ft 275 kts 239°
2026-04-24 11:12 38.66895 -28.33819 10147 ft 269 kts 238°
2026-04-24 11:13 38.65910 -28.35804 9534 ft 263 kts 238°
2026-04-24 11:13 38.64948 -28.37760 8933 ft 258 kts 238°
2026-04-24 11:13 38.64015 -28.39663 8366 ft 252 kts 238°
2026-04-24 11:13 38.63107 -28.41520 7823 ft 246 kts 238°
2026-04-24 11:14 38.62216 -28.43342 7441 ft 234 kts 237°
2026-04-24 11:14 38.61382 -28.45041 7160 ft 221 kts 237°
2026-04-24 11:14 38.60525 -28.46610 6886 ft 208 kts 232°
2026-04-24 11:14 38.59620 -28.47971 6620 ft 196 kts 227°
2026-04-24 11:15 38.58723 -28.49200 6352 ft 184 kts 227°
2026-04-24 11:15 38.57883 -28.50370 6066 ft 172 kts 227°
2026-04-24 11:15 38.57101 -28.51458 5796 ft 166 kts 227°
2026-04-24 11:15 38.56325 -28.52553 5579 ft 164 kts 229°
2026-04-24 11:16 38.55687 -28.53740 5336 ft 162 kts 237°
2026-04-24 11:16 38.55134 -28.54959 5088 ft 152 kts 237°
2026-04-24 11:16 38.54609 -28.56125 4673 ft 157 kts 237°
2026-04-24 11:16 38.54051 -28.57356 4123 ft 168 kts 237°
2026-04-24 11:17 38.53454 -28.58678 3642 ft 174 kts 237°
2026-04-24 11:17 38.52890 -28.60003 3149 ft 175 kts 238°
2026-04-24 11:17 38.52389 -28.61453 2510 ft 181 kts 251°
2026-04-24 11:17 38.52249 -28.63001 2135 ft 172 kts 258°
2026-04-24 11:18 38.52237 -28.64443 1977 ft 152 kts 264°
2026-04-24 11:18 38.52273 -28.65774 1379 ft 159 kts 259°
2026-04-24 11:18 38.52137 -28.67195 756 ft 164 kts 254°
2026-04-24 11:18 38.52008 -28.68568 516 ft 146 kts 259°
2026-04-24 11:19 38.52004 -28.69804 294 ft 133 kts 264°
2026-04-24 11:19 38.51992 -28.70957 119 ft 120 kts 264°
2026-04-24 11:19 38.52015 -28.72054 449 ft 134 kts 271°
2026-04-24 11:19 38.52209 -28.73153 1549 ft 135 kts 276°
2026-04-24 11:20 38.52388 -28.74322 2489 ft 140 kts 258°
2026-04-24 11:20 38.52317 -28.75527 3543 ft 145 kts 257°
2026-04-24 11:20 38.52237 -28.76867 4280 ft 170 kts 259°
2026-04-24 11:20 38.52159 -28.78469 4653 ft 191 kts 261°
2026-04-24 11:21 38.52096 -28.80271 4824 ft 216 kts 262°
2026-04-24 11:21 38.52049 -28.82195 4862 ft 214 kts 263°
2026-04-24 11:21 38.51998 -28.84079 4876 ft 209 kts 259°
2026-04-24 11:21 38.51768 -28.85893 4881 ft 205 kts 255°
2026-04-24 11:22 38.51500 -28.87653 4883 ft 203 kts 254°
2026-04-24 11:22 38.51233 -28.89433 4884 ft 201 kts 254°
2026-04-24 11:22 38.51105 -28.91184 4875 ft 205 kts 271°
2026-04-24 11:22 38.51715 -28.92865 4743 ft 213 kts 304°
2026-04-24 11:23 38.52985 -28.93854 4573 ft 219 kts 337°
2026-04-24 11:23 38.54481 -28.93791 4368 ft 222 kts 21°
2026-04-24 11:23 38.55548 -28.92479 4146 ft 207 kts 74°
2026-04-24 11:23 38.55603 -28.90796 3839 ft 187 kts 115°
2026-04-24 11:24 38.55132 -28.89224 3376 ft 193 kts 124°
2026-04-24 11:24 38.54583 -28.87739 3093 ft 172 kts 127°
2026-04-24 11:24 38.54090 -28.86475 2915 ft 151 kts 130°
2026-04-24 11:24 38.53577 -28.85304 2746 ft 153 kts 133°
2026-04-24 11:25 38.53032 -28.84144 2408 ft 157 kts 133°
2026-04-24 11:25 38.52452 -28.82964 1939 ft 154 kts 134°
2026-04-24 11:25 38.51975 -28.81772 1520 ft 162 kts 115°
2026-04-24 11:25 38.52027 -28.80269 1021 ft 167 kts 90°
2026-04-24 11:26 38.52152 -28.78908 845 ft 147 kts 92°
2026-04-24 11:26 38.52169 -28.77658 584 ft 136 kts 100°
2026-04-24 11:26 38.52099 -28.76474 484 ft 131 kts 103°
2026-04-24 11:26 38.52054 -28.75332 431 ft 130 kts 98°
2026-04-24 11:27 38.52003 -28.74171 287 ft 132 kts 103°
2026-04-24 11:27 38.51985 -28.72989 196 ft 133 kts 98°
2026-04-24 11:27 38.51980 -28.71837 109 ft 116 kts 99°
2026-04-24 11:27 38.51846 -28.70802 364 ft 134 kts 108°
2026-04-24 11:28 38.51725 -28.69683 1331 ft 134 kts 116°
2026-04-24 11:28 38.51484 -28.68386 1987 ft 161 kts 111°
2026-04-24 11:28 38.51329 -28.66992 2716 ft 166 kts 103°
2026-04-24 11:28 38.51063 -28.65611 2898 ft 158 kts 145°
2026-04-24 11:29 38.50088 -28.65250 2437 ft 150 kts 199°
2026-04-24 11:29 38.49360 -28.66145 2098 ft 151 kts 246°
2026-04-24 11:29 38.49225 -28.67429 2081 ft 136 kts 261°
2026-04-24 11:29 38.49336 -28.68599 1874 ft 137 kts 266°
2026-04-24 11:30 38.49479 -28.69800 1650 ft 135 kts 266°
2026-04-24 11:30 38.49613 -28.70992 1413 ft 135 kts 265°
2026-04-24 11:30 38.49705 -28.72198 1134 ft 139 kts 264°
2026-04-24 11:30 38.49744 -28.73404 913 ft 138 kts 266°
2026-04-24 11:31 38.50291 -28.74468 561 ft 162 kts 339°
2026-04-24 11:31 38.51313 -28.74489 596 ft 139 kts 16°
2026-04-24 11:31 38.51953 -28.73657 255 ft 133 kts 81°
2026-04-24 11:31 38.51987 -28.72536 113 ft 123 kts 97°
2026-04-24 11:32 38.51963 -28.71507 115 ft 104 kts 102°
2026-04-24 11:32 38.51889 -28.70705 380 ft 129 kts 103°
2026-04-24 11:32 38.51432 -28.69954 881 ft 133 kts 194°
2026-04-24 11:32 38.50873 -28.70864 756 ft 138 kts 251°
2026-04-24 11:33 38.50773 -28.72135 425 ft 148 kts 264°
2026-04-24 11:33 38.50917 -28.73408 243 ft 142 kts 290°
2026-04-24 11:33 38.51736 -28.74056 108 ft 161 kts
2026-04-24 11:33 38.52216 -28.73152 437 ft 131 kts 115°
2026-04-24 11:34 38.51990 -28.72050 100 ft 122 kts 97°
2026-04-24 11:34 38.51994 -28.71250 118 ft 55 kts 89°
2026-04-24 11:34 38.51993 -28.70931 118 ft 35 kts 92°
2026-04-24 11:34 38.52004 -28.70717 115 ft 4 kts 121°
2026-04-24 11:35 38.51982 -28.70827 115 ft 26 kts 273°
2026-04-24 11:35 38.51992 -28.71073 118 ft 22 kts 271°
2026-04-24 11:35 38.51991 -28.71301 118 ft 24 kts 270°
2026-04-24 11:35 38.51998 -28.71459 116 ft 16 kts 301°
2026-04-24 11:36 38.52087 -28.71487 120 ft 6 kts 356°
2026-04-24 11:36 38.52111 -28.71542 120 ft 6 kts 252°
2026-04-24 11:36 38.52106 -28.71552 119 ft 0 kts 216°